sensor_id;sensor_type;location;lat;lon;timestamp;temperature;humidity
74489;SHT31;62809;51.090;-115.358;2022-09-09T00:04:12;25.13;27.49
74489;SHT31;62809;51.090;-115.358;2022-09-09T00:09:17;25.11;27.49
74489;SHT31;62809;51.090;-115.358;2022-09-09T00:17:26;25.10;27.50
74489;SHT31;62809;51.090;-115.358;2022-09-09T00:28:28;25.05;27.50
74489;SHT31;62809;51.090;-115.358;2022-09-09T00:31:09;25.05;27.50
74489;SHT31;62809;51.090;-115.358;2022-09-09T00:33:51;25.04;27.52
74489;SHT31;62809;51.090;-115.358;2022-09-09T00:36:23;25.04;27.51
74489;SHT31;62809;51.090;-115.358;2022-09-09T00:38:58;25.04;27.52
74489;SHT31;62809;51.090;-115.358;2022-09-09T00:44:32;25.04;27.50
74489;SHT31;62809;51.090;-115.358;2022-09-09T00:58:19;25.01;27.49
74489;SHT31;62809;51.090;-115.358;2022-09-09T01:03:33;24.99;27.49
74489;SHT31;62809;51.090;-115.358;2022-09-09T01:09:07;24.95;27.47
74489;SHT31;62809;51.090;-115.358;2022-09-09T01:15:09;24.93;27.52
74489;SHT31;62809;51.090;-115.358;2022-09-09T01:18:05;24.93;27.51
74489;SHT31;62809;51.090;-115.358;2022-09-09T01:21:00;24.91;27.53
74489;SHT31;62809;51.090;-115.358;2022-09-09T01:29:01;24.88;27.59
74489;SHT31;62809;51.090;-115.358;2022-09-09T01:31:39;24.87;27.58
74489;SHT31;62809;51.090;-115.358;2022-09-09T01:34:17;24.85;27.59
74489;SHT31;62809;51.090;-115.358;2022-09-09T01:36:52;24.85;27.59
74489;SHT31;62809;51.090;-115.358;2022-09-09T01:39:25;24.84;27.60
74489;SHT31;62809;51.090;-115.358;2022-09-09T01:41:56;24.83;27.62
74489;SHT31;62809;51.090;-115.358;2022-09-09T01:44:24;24.83;27.61
74489;SHT31;62809;51.090;-115.358;2022-09-09T01:46:54;24.83;27.58
74489;SHT31;62809;51.090;-115.358;2022-09-09T01:49:22;24.82;27.60
74489;SHT31;62809;51.090;-115.358;2022-09-09T01:51:50;24.83;27.58
74489;SHT31;62809;51.090;-115.358;2022-09-09T01:54:21;24.82;27.60
74489;SHT31;62809;51.090;-115.358;2022-09-09T01:56:57;24.81;27.60
74489;SHT31;62809;51.090;-115.358;2022-09-09T02:02:36;24.79;27.59
74489;SHT31;62809;51.090;-115.358;2022-09-09T02:07:48;24.76;27.60
74489;SHT31;62809;51.090;-115.358;2022-09-09T02:10:35;24.76;27.60
74489;SHT31;62809;51.090;-115.358;2022-09-09T02:13:17;24.75;27.62
74489;SHT31;62809;51.090;-115.358;2022-09-09T02:18:21;24.73;27.60
74489;SHT31;62809;51.090;-115.358;2022-09-09T02:20:56;24.72;27.61
74489;SHT31;62809;51.090;-115.358;2022-09-09T02:23:25;24.71;27.63
74489;SHT31;62809;51.090;-115.358;2022-09-09T02:25:55;24.70;27.60
74489;SHT31;62809;51.090;-115.358;2022-09-09T02:28:26;24.70;27.60
74489;SHT31;62809;51.090;-115.358;2022-09-09T02:30:58;24.69;27.61
74489;SHT31;62809;51.090;-115.358;2022-09-09T02:33:28;24.69;27.61
74489;SHT31;62809;51.090;-115.358;2022-09-09T02:36:03;24.68;27.61
74489;SHT31;62809;51.090;-115.358;2022-09-09T02:38:35;24.66;27.60
74489;SHT31;62809;51.090;-115.358;2022-09-09T02:41:31;24.66;27.62
74489;SHT31;62809;51.090;-115.358;2022-09-09T02:44:08;24.65;27.66
74489;SHT31;62809;51.090;-115.358;2022-09-09T02:58:06;24.57;27.70
74489;SHT31;62809;51.090;-115.358;2022-09-09T03:00:45;24.55;27.72
74489;SHT31;62809;51.090;-115.358;2022-09-09T03:03:16;24.56;27.70
74489;SHT31;62809;51.090;-115.358;2022-09-09T03:05:46;24.53;27.71
74489;SHT31;62809;51.090;-115.358;2022-09-09T03:08:16;24.54;27.71
74489;SHT31;62809;51.090;-115.358;2022-09-09T03:10:43;24.52;27.72
74489;SHT31;62809;51.090;-115.358;2022-09-09T03:13:12;24.50;27.71
74489;SHT31;62809;51.090;-115.358;2022-09-09T03:15:40;24.49;27.74
74489;SHT31;62809;51.090;-115.358;2022-09-09T03:18:08;24.48;27.76
74489;SHT31;62809;51.090;-115.358;2022-09-09T03:20:34;24.47;27.80
74489;SHT31;62809;51.090;-115.358;2022-09-09T03:23:02;24.46;27.79
74489;SHT31;62809;51.090;-115.358;2022-09-09T03:25:29;24.43;27.80
74489;SHT31;62809;51.090;-115.358;2022-09-09T03:27:59;24.42;27.80
74489;SHT31;62809;51.090;-115.358;2022-09-09T03:30:27;24.41;27.81
74489;SHT31;62809;51.090;-115.358;2022-09-09T03:32:54;24.39;27.84
74489;SHT31;62809;51.090;-115.358;2022-09-09T03:35:22;24.38;27.90
74489;SHT31;62809;51.090;-115.358;2022-09-09T03:37:50;24.36;27.84
74489;SHT31;62809;51.090;-115.358;2022-09-09T03:40:17;24.36;27.85
74489;SHT31;62809;51.090;-115.358;2022-09-09T03:42:46;24.34;27.88
74489;SHT31;62809;51.090;-115.358;2022-09-09T03:45:14;24.31;27.89
74489;SHT31;62809;51.090;-115.358;2022-09-09T03:47:42;24.31;27.89
74489;SHT31;62809;51.090;-115.358;2022-09-09T03:50:09;24.29;27.90
74489;SHT31;62809;51.090;-115.358;2022-09-09T03:52:37;24.27;27.91
74489;SHT31;62809;51.090;-115.358;2022-09-09T03:55:09;24.26;27.91
74489;SHT31;62809;51.090;-115.358;2022-09-09T03:57:37;24.24;27.94
74489;SHT31;62809;51.090;-115.358;2022-09-09T04:00:07;24.23;27.97
74489;SHT31;62809;51.090;-115.358;2022-09-09T04:02:37;24.21;27.99
74489;SHT31;62809;51.090;-115.358;2022-09-09T04:05:04;24.20;28.00
74489;SHT31;62809;51.090;-115.358;2022-09-09T04:07:35;24.18;28.00
74489;SHT31;62809;51.090;-115.358;2022-09-09T04:10:02;24.16;28.00
74489;SHT31;62809;51.090;-115.358;2022-09-09T04:12:30;24.15;28.00
74489;SHT31;62809;51.090;-115.358;2022-09-09T04:14:57;24.14;28.00
74489;SHT31;62809;51.090;-115.358;2022-09-09T04:17:27;24.14;28.00
74489;SHT31;62809;51.090;-115.358;2022-09-09T04:19:56;24.13;28.03
74489;SHT31;62809;51.090;-115.358;2022-09-09T04:22:23;24.11;28.07
74489;SHT31;62809;51.090;-115.358;2022-09-09T04:24:51;24.10;28.06
74489;SHT31;62809;51.090;-115.358;2022-09-09T04:27:18;24.10;28.10
74489;SHT31;62809;51.090;-115.358;2022-09-09T04:29:47;24.08;28.09
74489;SHT31;62809;51.090;-115.358;2022-09-09T04:32:17;24.08;28.10
74489;SHT31;62809;51.090;-115.358;2022-09-09T04:34:44;24.06;28.10
74489;SHT31;62809;51.090;-115.358;2022-09-09T04:37:14;24.04;28.09
74489;SHT31;62809;51.090;-115.358;2022-09-09T04:39:42;24.04;28.10
74489;SHT31;62809;51.090;-115.358;2022-09-09T04:42:09;24.02;28.12
74489;SHT31;62809;51.090;-115.358;2022-09-09T04:44:38;24.00;28.11
74489;SHT31;62809;51.090;-115.358;2022-09-09T04:47:06;24.00;28.13
74489;SHT31;62809;51.090;-115.358;2022-09-09T04:49:35;23.98;28.11
74489;SHT31;62809;51.090;-115.358;2022-09-09T04:52:02;23.97;28.12
74489;SHT31;62809;51.090;-115.358;2022-09-09T04:54:31;23.96;28.16
74489;SHT31;62809;51.090;-115.358;2022-09-09T04:57:00;23.93;28.19
74489;SHT31;62809;51.090;-115.358;2022-09-09T04:59:28;23.92;28.20
74489;SHT31;62809;51.090;-115.358;2022-09-09T05:01:56;23.91;28.20
74489;SHT31;62809;51.090;-115.358;2022-09-09T05:04:23;23.90;28.20
74489;SHT31;62809;51.090;-115.358;2022-09-09T05:06:50;23.89;28.20
74489;SHT31;62809;51.090;-115.358;2022-09-09T05:09:20;23.88;28.20
74489;SHT31;62809;51.090;-115.358;2022-09-09T05:11:48;23.86;28.21
74489;SHT31;62809;51.090;-115.358;2022-09-09T05:14:15;23.85;28.23
74489;SHT31;62809;51.090;-115.358;2022-09-09T05:16:45;23.84;28.25
74489;SHT31;62809;51.090;-115.358;2022-09-09T05:19:15;23.82;28.27
74489;SHT31;62809;51.090;-115.358;2022-09-09T05:21:45;23.82;28.25
74489;SHT31;62809;51.090;-115.358;2022-09-09T05:24:12;23.80;28.26
74489;SHT31;62809;51.090;-115.358;2022-09-09T05:26:39;23.79;28.30
74489;SHT31;62809;51.090;-115.358;2022-09-09T05:29:07;23.76;28.29
74489;SHT31;62809;51.090;-115.358;2022-09-09T05:31:34;23.76;28.29
74489;SHT31;62809;51.090;-115.358;2022-09-09T05:34:02;23.75;28.30
74489;SHT31;62809;51.090;-115.358;2022-09-09T05:36:29;23.74;28.31
74489;SHT31;62809;51.090;-115.358;2022-09-09T05:38:56;23.72;28.31
74489;SHT31;62809;51.090;-115.358;2022-09-09T05:41:26;23.71;28.35
74489;SHT31;62809;51.090;-115.358;2022-09-09T05:43:55;23.69;28.33
74489;SHT31;62809;51.090;-115.358;2022-09-09T05:46:26;23.68;28.37
74489;SHT31;62809;51.090;-115.358;2022-09-09T05:48:53;23.67;28.38
74489;SHT31;62809;51.090;-115.358;2022-09-09T05:51:24;23.66;28.40
74489;SHT31;62809;51.090;-115.358;2022-09-09T05:53:59;23.64;28.39
74489;SHT31;62809;51.090;-115.358;2022-09-09T05:56:29;23.63;28.40
74489;SHT31;62809;51.090;-115.358;2022-09-09T05:58:59;23.62;28.40
74489;SHT31;62809;51.090;-115.358;2022-09-09T06:01:31;23.60;28.41
74489;SHT31;62809;51.090;-115.358;2022-09-09T06:04:01;23.60;28.46
74489;SHT31;62809;51.090;-115.358;2022-09-09T06:06:33;23.59;28.47
74489;SHT31;62809;51.090;-115.358;2022-09-09T06:09:05;23.58;28.49
74489;SHT31;62809;51.090;-115.358;2022-09-09T06:11:36;23.56;28.49
74489;SHT31;62809;51.090;-115.358;2022-09-09T06:14:05;23.55;28.49
74489;SHT31;62809;51.090;-115.358;2022-09-09T06:16:36;23.53;28.49
74489;SHT31;62809;51.090;-115.358;2022-09-09T06:19:05;23.53;28.50
74489;SHT31;62809;51.090;-115.358;2022-09-09T06:21:34;23.51;28.52
74489;SHT31;62809;51.090;-115.358;2022-09-09T06:24:03;23.50;28.57
74489;SHT31;62809;51.090;-115.358;2022-09-09T06:26:33;23.50;28.60
74489;SHT31;62809;51.090;-115.358;2022-09-09T06:29:07;23.48;28.60
74489;SHT31;62809;51.090;-115.358;2022-09-09T06:31:37;23.48;28.64
74489;SHT31;62809;51.090;-115.358;2022-09-09T06:34:05;23.47;28.70
74489;SHT31;62809;51.090;-115.358;2022-09-09T06:36:35;23.44;28.70
74489;SHT31;62809;51.090;-115.358;2022-09-09T06:39:05;23.43;28.75
74489;SHT31;62809;51.090;-115.358;2022-09-09T06:41:34;23.42;28.80
74489;SHT31;62809;51.090;-115.358;2022-09-09T06:44:04;23.41;28.82
74489;SHT31;62809;51.090;-115.358;2022-09-09T06:46:32;23.40;28.88
74489;SHT31;62809;51.090;-115.358;2022-09-09T06:49:00;23.40;28.90
74489;SHT31;62809;51.090;-115.358;2022-09-09T06:51:36;23.39;28.94
74489;SHT31;62809;51.090;-115.358;2022-09-09T06:54:12;23.38;28.97
74489;SHT31;62809;51.090;-115.358;2022-09-09T06:56:40;23.37;29.00
74489;SHT31;62809;51.090;-115.358;2022-09-09T06:59:09;23.36;29.01
74489;SHT31;62809;51.090;-115.358;2022-09-09T07:01:39;23.34;29.05
74489;SHT31;62809;51.090;-115.358;2022-09-09T07:04:17;23.33;29.09
74489;SHT31;62809;51.090;-115.358;2022-09-09T07:06:44;23.32;29.10
74489;SHT31;62809;51.090;-115.358;2022-09-09T07:09:15;23.30;29.11
74489;SHT31;62809;51.090;-115.358;2022-09-09T07:11:45;23.27;29.16
74489;SHT31;62809;51.090;-115.358;2022-09-09T07:14:16;23.27;29.18
74489;SHT31;62809;51.090;-115.358;2022-09-09T07:16:46;23.26;29.20
74489;SHT31;62809;51.090;-115.358;2022-09-09T07:19:15;23.24;29.19
74489;SHT31;62809;51.090;-115.358;2022-09-09T07:21:44;23.21;29.23
74489;SHT31;62809;51.090;-115.358;2022-09-09T07:24:21;23.20;29.24
74489;SHT31;62809;51.090;-115.358;2022-09-09T07:26:50;23.19;29.30
74489;SHT31;62809;51.090;-115.358;2022-09-09T07:29:20;23.17;29.30
74489;SHT31;62809;51.090;-115.358;2022-09-09T07:31:48;23.15;29.30
74489;SHT31;62809;51.090;-115.358;2022-09-09T07:34:17;23.14;29.30
74489;SHT31;62809;51.090;-115.358;2022-09-09T07:36:45;23.13;29.30
74489;SHT31;62809;51.090;-115.358;2022-09-09T07:39:13;23.11;29.33
74489;SHT31;62809;51.090;-115.358;2022-09-09T07:41:47;23.09;29.35
74489;SHT31;62809;51.090;-115.358;2022-09-09T07:44:18;23.09;29.37
74489;SHT31;62809;51.090;-115.358;2022-09-09T07:46:50;23.07;29.36
74489;SHT31;62809;51.090;-115.358;2022-09-09T07:49:19;23.06;29.38
74489;SHT31;62809;51.090;-115.358;2022-09-09T07:52:08;23.04;29.36
74489;SHT31;62809;51.090;-115.358;2022-09-09T07:54:36;23.03;29.40
74489;SHT31;62809;51.090;-115.358;2022-09-09T07:59:45;23.01;29.40
74489;SHT31;62809;51.090;-115.358;2022-09-09T08:02:20;23.00;29.40
74489;SHT31;62809;51.090;-115.358;2022-09-09T08:04:49;22.99;29.40
74489;SHT31;62809;51.090;-115.358;2022-09-09T08:07:17;22.97;29.41
74489;SHT31;62809;51.090;-115.358;2022-09-09T08:09:48;22.96;29.41
74489;SHT31;62809;51.090;-115.358;2022-09-09T08:12:18;22.96;29.42
74489;SHT31;62809;51.090;-115.358;2022-09-09T08:14:52;22.94;29.44
74489;SHT31;62809;51.090;-115.358;2022-09-09T08:17:19;22.93;29.43
74489;SHT31;62809;51.090;-115.358;2022-09-09T08:19:56;22.92;29.47
74489;SHT31;62809;51.090;-115.358;2022-09-09T08:22:31;22.91;29.45
74489;SHT31;62809;51.090;-115.358;2022-09-09T08:24:59;22.90;29.50
74489;SHT31;62809;51.090;-115.358;2022-09-09T08:27:31;22.89;29.46
74489;SHT31;62809;51.090;-115.358;2022-09-09T08:29:59;22.88;29.49
74489;SHT31;62809;51.090;-115.358;2022-09-09T08:32:27;22.86;29.49
74489;SHT31;62809;51.090;-115.358;2022-09-09T08:34:54;22.85;29.48
74489;SHT31;62809;51.090;-115.358;2022-09-09T08:37:21;22.85;29.50
74489;SHT31;62809;51.090;-115.358;2022-09-09T08:39:49;22.82;29.50
74489;SHT31;62809;51.090;-115.358;2022-09-09T08:42:24;22.83;29.53
74489;SHT31;62809;51.090;-115.358;2022-09-09T08:45:15;22.81;29.51
74489;SHT31;62809;51.090;-115.358;2022-09-09T08:50:56;22.79;29.55
74489;SHT31;62809;51.090;-115.358;2022-09-09T08:53:34;22.78;29.55
74489;SHT31;62809;51.090;-115.358;2022-09-09T08:58:50;22.75;29.55
74489;SHT31;62809;51.090;-115.358;2022-09-09T09:01:28;22.75;29.58
74489;SHT31;62809;51.090;-115.358;2022-09-09T09:04:02;22.74;29.60
74489;SHT31;62809;51.090;-115.358;2022-09-09T09:06:50;22.72;29.60
74489;SHT31;62809;51.090;-115.358;2022-09-09T09:12:38;22.70;29.63
74489;SHT31;62809;51.090;-115.358;2022-09-09T09:23:47;22.67;29.65
74489;SHT31;62809;51.090;-115.358;2022-09-09T09:26:25;22.66;29.63
74489;SHT31;62809;51.090;-115.358;2022-09-09T09:29:16;22.64;29.66
74489;SHT31;62809;51.090;-115.358;2022-09-09T09:34:55;22.62;29.68
74489;SHT31;62809;51.090;-115.358;2022-09-09T09:37:33;22.61;29.70
74489;SHT31;62809;51.090;-115.358;2022-09-09T09:42:56;22.58;29.73
74489;SHT31;62809;51.090;-115.358;2022-09-09T09:45:32;22.57;29.75
74489;SHT31;62809;51.090;-115.358;2022-09-09T09:48:20;22.55;29.76
74489;SHT31;62809;51.090;-115.358;2022-09-09T09:50:48;22.53;29.79
74489;SHT31;62809;51.090;-115.358;2022-09-09T09:56:07;22.49;29.82
74489;SHT31;62809;51.090;-115.358;2022-09-09T10:01:20;22.45;29.86
74489;SHT31;62809;51.090;-115.358;2022-09-09T10:03:54;22.44;29.89
74489;SHT31;62809;51.090;-115.358;2022-09-09T10:06:31;22.42;29.90
74489;SHT31;62809;51.090;-115.358;2022-09-09T10:09:17;22.41;29.91
74489;SHT31;62809;51.090;-115.358;2022-09-09T10:14:52;22.39;29.97
74489;SHT31;62809;51.090;-115.358;2022-09-09T10:23:47;22.32;30.00
74489;SHT31;62809;51.090;-115.358;2022-09-09T10:46:34;22.20;30.20
74489;SHT31;62809;51.090;-115.358;2022-09-09T10:57:28;22.14;30.24
74489;SHT31;62809;51.090;-115.358;2022-09-09T11:00:21;22.12;30.30
74489;SHT31;62809;51.090;-115.358;2022-09-09T11:03:01;22.10;30.30
74489;SHT31;62809;51.090;-115.358;2022-09-09T11:08:18;22.08;30.31
74489;SHT31;62809;51.090;-115.358;2022-09-09T11:10:54;22.07;30.30
74489;SHT31;62809;51.090;-115.358;2022-09-09T11:45:50;21.92;30.48
74489;SHT31;62809;51.090;-115.358;2022-09-09T11:51:26;21.90;30.50
74489;SHT31;62809;51.090;-115.358;2022-09-09T11:56:57;21.87;30.51
74489;SHT31;62809;51.090;-115.358;2022-09-09T11:59:29;21.85;30.53
74489;SHT31;62809;51.090;-115.358;2022-09-09T12:13:29;21.79;30.60
74489;SHT31;62809;51.090;-115.358;2022-09-09T12:15:59;21.80;30.60
74489;SHT31;62809;51.090;-115.358;2022-09-09T12:24:10;21.77;30.61
74489;SHT31;62809;51.090;-115.358;2022-09-09T12:26:53;21.75;30.60
74489;SHT31;62809;51.090;-115.358;2022-09-09T12:32:29;21.72;30.60
74489;SHT31;62809;51.090;-115.358;2022-09-09T12:35:13;21.72;30.62
74489;SHT31;62809;51.090;-115.358;2022-09-09T12:40:34;21.72;30.68
74489;SHT31;62809;51.090;-115.358;2022-09-09T12:43:26;21.70;30.70
74489;SHT31;62809;51.090;-115.358;2022-09-09T12:46:00;21.69;30.70
74489;SHT31;62809;51.090;-115.358;2022-09-09T12:48:58;21.70;30.70
74489;SHT31;62809;51.090;-115.358;2022-09-09T12:51:54;21.69;30.71
74489;SHT31;62809;51.090;-115.358;2022-09-09T12:54:23;21.69;30.75
74489;SHT31;62809;51.090;-115.358;2022-09-09T12:56:56;21.68;30.78
74489;SHT31;62809;51.090;-115.358;2022-09-09T12:59:34;21.67;30.77
74489;SHT31;62809;51.090;-115.358;2022-09-09T13:05:36;21.65;30.78
74489;SHT31;62809;51.090;-115.358;2022-09-09T13:08:05;21.64;30.79
74489;SHT31;62809;51.090;-115.358;2022-09-09T13:10:39;21.64;30.80
74489;SHT31;62809;51.090;-115.358;2022-09-09T13:13:17;21.62;30.80
74489;SHT31;62809;51.090;-115.358;2022-09-09T13:15:53;21.61;30.81
74489;SHT31;62809;51.090;-115.358;2022-09-09T13:18:29;21.59;30.80
74489;SHT31;62809;51.090;-115.358;2022-09-09T13:21:04;21.58;30.79
74489;SHT31;62809;51.090;-115.358;2022-09-09T13:23:34;21.57;30.74
74489;SHT31;62809;51.090;-115.358;2022-09-09T13:26:05;21.55;30.72
74489;SHT31;62809;51.090;-115.358;2022-09-09T13:28:47;21.53;30.70
74489;SHT31;62809;51.090;-115.358;2022-09-09T13:34:26;21.52;30.63
74489;SHT31;62809;51.090;-115.358;2022-09-09T13:37:06;21.49;30.62
74489;SHT31;62809;51.090;-115.358;2022-09-09T13:39:53;21.47;30.64
74489;SHT31;62809;51.090;-115.358;2022-09-09T13:42:24;21.47;30.77
74489;SHT31;62809;51.090;-115.358;2022-09-09T13:44:55;21.46;30.88
74489;SHT31;62809;51.090;-115.358;2022-09-09T13:47:37;21.48;30.94
74489;SHT31;62809;51.090;-115.358;2022-09-09T13:52:50;21.49;31.04
74489;SHT31;62809;51.090;-115.358;2022-09-09T13:55:29;21.49;31.08
74489;SHT31;62809;51.090;-115.358;2022-09-09T13:57:59;21.49;31.10
74489;SHT31;62809;51.090;-115.358;2022-09-09T14:00:41;21.49;31.14
74489;SHT31;62809;51.090;-115.358;2022-09-09T14:03:09;21.49;31.15
74489;SHT31;62809;51.090;-115.358;2022-09-09T14:05:36;21.47;31.13
74489;SHT31;62809;51.090;-115.358;2022-09-09T14:08:21;21.47;31.12
74489;SHT31;62809;51.090;-115.358;2022-09-09T14:10:55;21.46;31.07
74489;SHT31;62809;51.090;-115.358;2022-09-09T14:13:24;21.45;31.03
74489;SHT31;62809;51.090;-115.358;2022-09-09T14:15:53;21.45;31.07
74489;SHT31;62809;51.090;-115.358;2022-09-09T14:18:21;21.44;31.11
74489;SHT31;62809;51.090;-115.358;2022-09-09T14:20:50;21.45;31.18
74489;SHT31;62809;51.090;-115.358;2022-09-09T14:23:18;21.46;31.19
74489;SHT31;62809;51.090;-115.358;2022-09-09T14:25:47;21.45;31.20
74489;SHT31;62809;51.090;-115.358;2022-09-09T14:28:14;21.44;31.20
74489;SHT31;62809;51.090;-115.358;2022-09-09T14:30:42;21.44;31.12
74489;SHT31;62809;51.090;-115.358;2022-09-09T14:33:11;21.43;31.11
74489;SHT31;62809;51.090;-115.358;2022-09-09T14:35:42;21.42;31.13
74489;SHT31;62809;51.090;-115.358;2022-09-09T14:38:11;21.42;31.20
74489;SHT31;62809;51.090;-115.358;2022-09-09T14:40:39;21.42;31.23
74489;SHT31;62809;51.090;-115.358;2022-09-09T14:43:09;21.41;31.28
74489;SHT31;62809;51.090;-115.358;2022-09-09T14:45:37;21.40;31.29
74489;SHT31;62809;51.090;-115.358;2022-09-09T14:48:04;21.41;31.31
74489;SHT31;62809;51.090;-115.358;2022-09-09T14:50:32;21.41;31.36
74489;SHT31;62809;51.090;-115.358;2022-09-09T14:53:05;21.40;31.45
74489;SHT31;62809;51.090;-115.358;2022-09-09T14:55:34;21.41;31.50
74489;SHT31;62809;51.090;-115.358;2022-09-09T14:58:04;21.42;31.52
74489;SHT31;62809;51.090;-115.358;2022-09-09T15:00:32;21.43;31.58
74489;SHT31;62809;51.090;-115.358;2022-09-09T15:03:01;21.44;31.59
74489;SHT31;62809;51.090;-115.358;2022-09-09T15:05:31;21.46;31.57
74489;SHT31;62809;51.090;-115.358;2022-09-09T15:07:58;21.45;31.53
74489;SHT31;62809;51.090;-115.358;2022-09-09T15:10:28;21.46;31.66
74489;SHT31;62809;51.090;-115.358;2022-09-09T15:12:58;21.46;31.72
74489;SHT31;62809;51.090;-115.358;2022-09-09T15:15:25;21.46;31.76
74489;SHT31;62809;51.090;-115.358;2022-09-09T15:17:52;21.48;31.75
74489;SHT31;62809;51.090;-115.358;2022-09-09T15:20:19;21.48;31.76
74489;SHT31;62809;51.090;-115.358;2022-09-09T15:22:47;21.49;31.77
74489;SHT31;62809;51.090;-115.358;2022-09-09T15:25:17;21.48;31.76
74489;SHT31;62809;51.090;-115.358;2022-09-09T15:27:44;21.49;31.74
74489;SHT31;62809;51.090;-115.358;2022-09-09T15:30:11;21.49;31.77
74489;SHT31;62809;51.090;-115.358;2022-09-09T15:32:39;21.48;31.80
74489;SHT31;62809;51.090;-115.358;2022-09-09T15:35:07;21.49;31.93
74489;SHT31;62809;51.090;-115.358;2022-09-09T15:37:36;21.49;32.00
74489;SHT31;62809;51.090;-115.358;2022-09-09T15:40:03;21.50;31.98
74489;SHT31;62809;51.090;-115.358;2022-09-09T15:42:31;21.50;32.00
74489;SHT31;62809;51.090;-115.358;2022-09-09T15:44:58;21.51;32.03
74489;SHT31;62809;51.090;-115.358;2022-09-09T15:47:26;21.52;32.04
74489;SHT31;62809;51.090;-115.358;2022-09-09T15:49:54;21.53;32.05
74489;SHT31;62809;51.090;-115.358;2022-09-09T15:52:23;21.53;32.06
74489;SHT31;62809;51.090;-115.358;2022-09-09T15:54:50;21.54;32.01
74489;SHT31;62809;51.090;-115.358;2022-09-09T15:57:18;21.55;32.01
74489;SHT31;62809;51.090;-115.358;2022-09-09T15:59:45;21.55;32.02
74489;SHT31;62809;51.090;-115.358;2022-09-09T16:02:13;21.56;32.17
74489;SHT31;62809;51.090;-115.358;2022-09-09T16:04:43;21.57;32.26
74489;SHT31;62809;51.090;-115.358;2022-09-09T16:07:11;21.59;32.30
74489;SHT31;62809;51.090;-115.358;2022-09-09T16:09:38;21.60;32.36
74489;SHT31;62809;51.090;-115.358;2022-09-09T16:12:08;21.63;32.34
74489;SHT31;62809;51.090;-115.358;2022-09-09T16:14:37;21.65;32.52
74489;SHT31;62809;51.090;-115.358;2022-09-09T16:17:07;21.67;32.51
74489;SHT31;62809;51.090;-115.358;2022-09-09T16:19:39;21.69;32.45
74489;SHT31;62809;51.090;-115.358;2022-09-09T16:22:06;21.71;32.33
74489;SHT31;62809;51.090;-115.358;2022-09-09T16:24:35;21.73;32.38
74489;SHT31;62809;51.090;-115.358;2022-09-09T16:27:03;21.73;32.30
74489;SHT31;62809;51.090;-115.358;2022-09-09T16:29:32;21.73;32.54
74489;SHT31;62809;51.090;-115.358;2022-09-09T16:34:30;21.76;32.47
74489;SHT31;62809;51.090;-115.358;2022-09-09T16:40:00;21.78;32.49
74489;SHT31;62809;51.090;-115.358;2022-09-09T16:42:28;21.80;32.47
74489;SHT31;62809;51.090;-115.358;2022-09-09T16:44:56;21.81;32.45
74489;SHT31;62809;51.090;-115.358;2022-09-09T16:47:23;21.81;32.43
74489;SHT31;62809;51.090;-115.358;2022-09-09T16:49:50;21.83;32.39
74489;SHT31;62809;51.090;-115.358;2022-09-09T16:52:27;21.84;32.41
74489;SHT31;62809;51.090;-115.358;2022-09-09T16:54:57;21.85;32.41
74489;SHT31;62809;51.090;-115.358;2022-09-09T16:57:26;21.87;32.48
74489;SHT31;62809;51.090;-115.358;2022-09-09T16:59:55;21.90;32.51
74489;SHT31;62809;51.090;-115.358;2022-09-09T17:02:25;21.93;32.51
74489;SHT31;62809;51.090;-115.358;2022-09-09T17:04:55;21.96;32.51
74489;SHT31;62809;51.090;-115.358;2022-09-09T17:07:24;21.98;32.49
74489;SHT31;62809;51.090;-115.358;2022-09-09T17:10:02;22.00;32.46
74489;SHT31;62809;51.090;-115.358;2022-09-09T17:12:29;22.02;32.49
74489;SHT31;62809;51.090;-115.358;2022-09-09T17:14:59;22.02;32.41
74489;SHT31;62809;51.090;-115.358;2022-09-09T17:17:28;22.04;32.40
74489;SHT31;62809;51.090;-115.358;2022-09-09T17:19:57;22.05;32.36
74489;SHT31;62809;51.090;-115.358;2022-09-09T17:22:24;22.07;32.30
74489;SHT31;62809;51.090;-115.358;2022-09-09T17:24:52;22.08;32.29
74489;SHT31;62809;51.090;-115.358;2022-09-09T17:27:20;22.10;32.29
74489;SHT31;62809;51.090;-115.358;2022-09-09T17:29:47;22.12;32.21
74489;SHT31;62809;51.090;-115.358;2022-09-09T17:32:14;22.12;32.17
74489;SHT31;62809;51.090;-115.358;2022-09-09T17:34:41;22.14;32.23
74489;SHT31;62809;51.090;-115.358;2022-09-09T17:37:08;22.15;32.19
74489;SHT31;62809;51.090;-115.358;2022-09-09T17:39:37;22.17;32.13
74489;SHT31;62809;51.090;-115.358;2022-09-09T17:42:06;22.20;32.10
74489;SHT31;62809;51.090;-115.358;2022-09-09T17:44:33;22.21;32.09
74489;SHT31;62809;51.090;-115.358;2022-09-09T17:47:02;22.23;32.06
74489;SHT31;62809;51.090;-115.358;2022-09-09T17:49:31;22.25;32.01
74489;SHT31;62809;51.090;-115.358;2022-09-09T17:51:59;22.27;32.00
74489;SHT31;62809;51.090;-115.358;2022-09-09T17:54:26;22.29;31.96
74489;SHT31;62809;51.090;-115.358;2022-09-09T17:56:53;22.31;31.92
74489;SHT31;62809;51.090;-115.358;2022-09-09T17:59:21;22.32;31.96
74489;SHT31;62809;51.090;-115.358;2022-09-09T18:01:51;22.34;31.97
74489;SHT31;62809;51.090;-115.358;2022-09-09T18:04:20;22.36;31.96
74489;SHT31;62809;51.090;-115.358;2022-09-09T18:06:49;22.39;31.93
74489;SHT31;62809;51.090;-115.358;2022-09-09T18:09:20;22.41;31.90
74489;SHT31;62809;51.090;-115.358;2022-09-09T18:11:53;22.43;31.88
74489;SHT31;62809;51.090;-115.358;2022-09-09T18:14:27;22.46;31.83
74489;SHT31;62809;51.090;-115.358;2022-09-09T18:16:59;22.49;31.80
74489;SHT31;62809;51.090;-115.358;2022-09-09T18:19:29;22.52;31.80
74489;SHT31;62809;51.090;-115.358;2022-09-09T18:21:59;22.53;31.72
74489;SHT31;62809;51.090;-115.358;2022-09-09T18:24:29;22.56;31.71
74489;SHT31;62809;51.090;-115.358;2022-09-09T18:27:01;22.58;31.67
74489;SHT31;62809;51.090;-115.358;2022-09-09T18:29:28;22.61;31.68
74489;SHT31;62809;51.090;-115.358;2022-09-09T18:31:59;22.65;31.68
74489;SHT31;62809;51.090;-115.358;2022-09-09T18:34:26;22.68;31.60
74489;SHT31;62809;51.090;-115.358;2022-09-09T18:36:55;22.73;31.51
74489;SHT31;62809;51.090;-115.358;2022-09-09T18:39:23;22.77;31.41
74489;SHT31;62809;51.090;-115.358;2022-09-09T18:41:55;22.80;31.33
74489;SHT31;62809;51.090;-115.358;2022-09-09T18:44:25;22.85;31.21
74489;SHT31;62809;51.090;-115.358;2022-09-09T18:46:56;22.87;31.15
74489;SHT31;62809;51.090;-115.358;2022-09-09T18:49:23;22.91;31.04